createdAt,value
2023-01-19T07:05:06.905Z,139185.06
2023-01-19T07:10:11.809Z,138520.56
2023-01-19T07:15:17.256Z,139171.66
2023-01-19T07:20:22.331Z,139180.19
2023-01-19T07:25:26.615Z,139204.63
2023-01-19T07:30:30.494Z,139232.72
2023-01-19T07:35:35.519Z,139246.19
2023-01-19T07:40:39.339Z,139270.53
2023-01-19T07:45:42.997Z,139298.63
2023-01-19T07:50:48.464Z,139325.50
2023-01-19T07:55:55.047Z,139340.19
2023-01-19T08:00:58.835Z,139371.97
2023-01-19T08:06:05.187Z,139433.06
2023-01-19T08:11:08.734Z,139490.50
2023-01-19T08:16:15.740Z,139505.19
2023-01-19T08:21:21.933Z,139544.31
2023-01-19T08:26:30.127Z,139577.31
2023-01-19T08:31:34.470Z,139615.28
2023-01-19T08:36:39.722Z,139647.09
2023-01-19T08:41:43.286Z,139672.78
2023-01-19T08:46:47.279Z,139688.66
2023-01-19T08:51:52.308Z,139704.56
2023-01-19T08:56:56.175Z,139733.94
2023-01-19T09:02:00.039Z,139760.88
2023-01-19T09:12:09.417Z,139823.28
2023-01-19T09:17:14.931Z,139834.34
2023-01-19T09:22:20.328Z,139869.84
2023-01-19T09:27:36.722Z,139907.81
2023-01-19T09:38:34.636Z,139909.03
2023-01-19T09:43:40.746Z,139929.88
2023-01-19T09:48:45.978Z,139953.09
2023-01-19T09:54:05.115Z,139991.06
2023-01-19T09:59:18.679Z,140013.13
2023-01-19T10:04:30.568Z,140048.66
2023-01-19T10:09:40.233Z,140036.44
2023-01-19T10:14:47.425Z,140041.31
2023-01-19T10:20:00.454Z,140054.84
2023-01-19T10:26:04.906Z,140075.63
2023-01-19T10:43:48.157Z,140183.53
2023-01-19T10:49:43.943Z,140183.53
2023-01-19T11:48:44.463Z,140378.56
2023-01-19T11:54:52.403Z,140393.31
2023-01-19T12:00:05.422Z,140421.53
2023-01-19T12:05:14.538Z,140480.44
2023-01-19T12:10:31.980Z,140484.09
2023-01-19T12:15:39.611Z,140481.66
2023-01-19T12:21:04.821Z,140479.19
2023-01-19T12:26:42.045Z,140491.47
2023-01-19T12:31:53.590Z,140495.13
2023-01-19T12:37:01.932Z,140485.34
2023-01-19T12:42:09.266Z,140485.34
2023-01-19T12:47:27.930Z,140512.34
2023-01-19T12:52:39.157Z,140493.91
2023-01-19T12:58:02.299Z,140500.09
2023-01-19T13:03:21.683Z,140486.56
2023-01-19T13:08:29.897Z,140454.69
2023-01-19T13:13:36.725Z,140474.34
2023-01-19T13:18:44.786Z,140497.59
2023-01-19T13:23:55.239Z,140508.66
2023-01-19T13:29:08.391Z,140506.22
2023-01-19T13:34:24.463Z,140491.47
2023-01-19T13:39:31.081Z,140509.91
2023-01-19T13:44:39.479Z,140481.66
2023-01-19T13:49:44.901Z,140495.13
2023-01-19T14:01:49.141Z,140431.34
2023-01-19T14:07:28.546Z,140421.53
2023-01-19T14:13:22.749Z,140371.22
2023-01-19T14:18:52.039Z,140358.97
2023-01-19T14:24:43.071Z,140344.22
2023-01-19T14:30:27.851Z,140324.56
2023-01-19T14:35:38.288Z,140285.31
2023-01-19T14:41:00.522Z,140274.25
2023-01-19T14:47:04.680Z,140227.66
2023-01-19T14:52:21.848Z,140378.56
2023-01-19T14:57:37.649Z,140395.75
2023-01-19T15:02:58.589Z,140410.47
2023-01-19T15:08:17.484Z,140412.91
2023-01-19T15:13:29.441Z,140443.66
2023-01-19T15:18:37.105Z,140338.09
2023-01-19T15:23:43.877Z,140257.09
2023-01-19T15:28:49.420Z,140204.34
2023-01-19T15:34:00.445Z,140151.66
2023-01-19T15:39:04.903Z,140168.84
2023-01-19T15:44:12.438Z,140151.66
2023-01-19T15:49:16.980Z,140129.59
2023-01-19T15:54:21.375Z,140146.75
2023-01-19T15:59:32.846Z,140141.88
2023-01-19T16:04:37.020Z,140150.44
2023-01-19T16:09:50.016Z,140157.78
2023-01-19T16:14:55.392Z,140132.03
2023-01-19T16:19:58.996Z,140136.97
2023-01-19T16:25:02.794Z,140127.13
2023-01-19T16:30:09.159Z,140087.91
2023-01-19T16:35:13.003Z,140062.19
2023-01-19T16:40:16.876Z,140052.38
2023-01-19T16:45:21.915Z,140047.44
2023-01-19T16:50:25.582Z,140052.38
2023-01-19T16:55:29.275Z,140117.34
2023-01-19T17:00:34.313Z,140144.31
2023-01-19T17:05:38.116Z,140156.56
2023-01-19T17:10:43.643Z,140215.38
2023-01-19T17:15:49.025Z,140242.34
2023-01-19T17:20:54.975Z,140255.88
2023-01-19T17:26:01.549Z,140000.91
2023-01-19T17:31:07.749Z,140293.88
2023-01-19T17:36:12.790Z,140327.00
2023-01-19T17:41:19.719Z,140360.19
2023-01-19T17:46:26.484Z,140388.41
2023-01-19T17:51:30.776Z,140363.88
2023-01-19T17:56:37.529Z,140403.13
2023-01-19T18:01:44.978Z,140422.78
2023-01-19T18:06:51.656Z,140432.56
2023-01-19T18:11:55.455Z,140433.81
2023-01-19T18:17:00.570Z,140441.16
2023-01-19T18:22:04.106Z,140458.38
2023-01-19T18:27:07.898Z,140465.72
2023-01-19T18:32:13.342Z,140491.47
2023-01-19T18:37:17.791Z,140502.53
2023-01-19T18:42:22.129Z,140503.75
2023-01-19T18:47:27.389Z,140495.13
2023-01-19T18:52:32.401Z,140480.44
2023-01-19T18:57:36.154Z,140804.72
2023-01-19T19:02:41.200Z,141034.78
2023-01-19T19:07:45.027Z,141060.63
2023-01-19T19:12:48.992Z,141012.63
2023-01-19T19:17:54.055Z,140863.78
2023-01-19T19:22:57.981Z,140713.81
2023-01-19T19:28:21.284Z,140657.28
2023-01-19T19:33:27.466Z,140620.44
2023-01-19T19:38:34.968Z,140629.03
2023-01-19T19:43:39.470Z,140611.84
2023-01-19T19:48:44.711Z,140611.84
2023-01-19T19:53:51.364Z,140615.53
2023-01-19T19:58:56.437Z,140616.75
2023-01-19T20:04:05.745Z,140609.34
2023-01-19T20:09:10.929Z,140611.84
2023-01-19T20:14:16.210Z,140624.13
2023-01-19T20:19:21.294Z,140621.66
2023-01-19T20:24:25.008Z,140616.75
2023-01-19T20:29:28.716Z,140599.53
2023-01-19T20:34:35.921Z,140604.44
2023-01-19T20:39:40.601Z,140618.00
2023-01-19T20:44:45.033Z,140589.72
2023-01-19T20:49:50.623Z,140549.19
2023-01-19T20:54:54.821Z,140592.19
2023-01-19T20:59:59.317Z,140619.22
2023-01-19T21:05:04.512Z,140624.13
2023-01-19T21:10:11.225Z,140630.25
2023-01-19T21:15:15.146Z,140630.25
2023-01-19T21:20:21.293Z,140627.81
2023-01-19T21:25:25.136Z,140641.34
2023-01-19T21:30:29.661Z,140653.59
2023-01-19T21:35:35.034Z,140643.78
2023-01-19T21:40:40.146Z,140658.50
2023-01-19T21:45:43.964Z,140657.28
2023-01-19T21:50:57.101Z,140665.91
2023-01-19T21:56:01.249Z,140649.94
2023-01-19T22:01:06.109Z,140647.47
2023-01-19T22:06:12.149Z,140642.56
2023-01-19T22:11:19.682Z,140638.88
2023-01-19T22:16:24.179Z,140630.25
2023-01-19T22:21:32.995Z,140641.34
2023-01-19T22:26:36.989Z,140651.16
2023-01-19T22:31:41.176Z,140649.94
2023-01-19T22:36:46.438Z,140641.34
2023-01-19T22:41:50.179Z,140648.69
